Terminal Aerodrome Forecast
Issued by NWS

Home | Current Version | Previous Version | Text Only | Print | Product List | Glossary On
Versions: 1 2 3 4 5 6 7 8 9 10 11 12
000
FTUS46 KSEW 262320
TAFBFI
TAF
KBFI 262320Z 2700/2724 32007KT P6SM SCT250
     FM270500 17004KT P6SM SCT250
      TEMPO 2715/2719 BKN025
     FM271900 18008KT P6SM BKN025
     FM272100 18010KT P6SM SCT035 BKN100=

USA.gov is the U.S. government's official web portal to all federal, state and local government web resources and services.